Prudenville, Michigan
Current Conditions -  °F | °C
As of 3:53 PM on Friday 31 Oct 2014 (Local Time) from KHTL Reporting Station
Overcast Overcast  
Wind Chill: 20°   Ceiling: 2000
Heat Index: 32°   Visibility: 10mi
Dew Point: 25°   Wind: 20mph
Humidity: 75%   Direction: 10°N
Pressure: 30.14"   Gusts: 30mph
Location:  44.3°N, 84.66°W
Report Text: KHTL 311953Z AUTO 01017G26KT 10SM OVC020 00/M04 A3014 RMK AO2 PK WND 35030/1915 SNB21E35 SLP220 P0000 T00001039
Loading
Personal Weather Stations






























Interactive Weather Map
Tropical Storm Tracking
New forecast layout! Learn more

10-Day Weather Forecast

Advertisements
Track Severe Weather on mobile